TGW436 WSSS-WMKP
Flight info
| Callsign | TGW436 |
|---|---|
| Flight time | 1h 0m |
| Altitude | 32000 |
| Route | AROSO Y513 KALIL Y504 BILIK Y506 TEPUS |
| Aircraft | A320/M-V/N |
Departure
| Time | 2026-05-06 07:21 |
|---|---|
| Airport | Singapore Changi Airport (WSSS) |
Arrival
| Time | 2026-05-06 08:21 |
|---|---|
| Airport | Penang International Airport (WMKP) |
| Time | Latitude | Longitude | Altitude | Speed | Heading |
|---|---|---|---|---|---|
| 2026-05-06 06:46 | 1.36402 | 103.99241 | 0 ft | 0 kts | 142° |
| 2026-05-06 07:08 | 1.36404 | 103.99239 | 30 ft | 1 kts | 142° |
| 2026-05-06 07:08 | 1.36418 | 103.99229 | 30 ft | 3 kts | 142° |
| 2026-05-06 07:08 | 1.36434 | 103.99217 | 26 ft | 3 kts | 142° |
| 2026-05-06 07:08 | 1.36449 | 103.99204 | 30 ft | 3 kts | 126° |
| 2026-05-06 07:09 | 1.36458 | 103.99188 | 30 ft | 3 kts | 84° |
| 2026-05-06 07:09 | 1.36454 | 103.99176 | 30 ft | 1 kts | 53° |
| 2026-05-06 07:09 | 1.36454 | 103.99175 | 30 ft | 0 kts | 53° |
| 2026-05-06 07:15 | 1.36454 | 103.99176 | 0 ft | 0 kts | 53° |
| 2026-05-06 07:15 | 1.36460 | 103.99183 | 0 ft | 2 kts | 53° |
| 2026-05-06 07:15 | 1.36473 | 103.99200 | 18 ft | 4 kts | 53° |
| 2026-05-06 07:15 | 1.36500 | 103.99235 | 30 ft | 8 kts | 52° |
| 2026-05-06 07:16 | 1.36536 | 103.99281 | 30 ft | 9 kts | 52° |
| 2026-05-06 07:16 | 1.36579 | 103.99339 | 30 ft | 11 kts | 62° |
| 2026-05-06 07:16 | 1.36573 | 103.99419 | 30 ft | 13 kts | 108° |
| 2026-05-06 07:16 | 1.36538 | 103.99509 | 30 ft | 15 kts | 111° |
| 2026-05-06 07:17 | 1.36496 | 103.99612 | 30 ft | 17 kts | 114° |
| 2026-05-06 07:17 | 1.36446 | 103.99724 | 30 ft | 18 kts | 114° |
| 2026-05-06 07:17 | 1.36426 | 103.99768 | 30 ft | 5 kts | 114° |
| 2026-05-06 07:17 | 1.36409 | 103.99806 | 30 ft | 7 kts | 114° |
| 2026-05-06 07:18 | 1.36393 | 103.99843 | 30 ft | 0 kts | 114° |
| 2026-05-06 07:18 | 1.36392 | 103.99845 | 28 ft | 1 kts | 114° |
| 2026-05-06 07:18 | 1.36385 | 103.99857 | 30 ft | 3 kts | 122° |
| 2026-05-06 07:19 | 1.36362 | 103.99868 | 30 ft | 7 kts | 160° |
| 2026-05-06 07:19 | 1.36285 | 103.99883 | 30 ft | 15 kts | 173° |
| 2026-05-06 07:19 | 1.36172 | 103.99888 | 30 ft | 17 kts | 194° |
| 2026-05-06 07:19 | 1.36046 | 103.99837 | 30 ft | 28 kts | 203° |
| 2026-05-06 07:20 | 1.35678 | 103.99681 | 30 ft | 89 kts | 202° |
| 2026-05-06 07:20 | 1.34945 | 103.99372 | 30 ft | 138 kts | 203° |
| 2026-05-06 07:20 | 1.33938 | 103.98943 | 33 ft | 176 kts | 203° |
| 2026-05-06 07:20 | 1.32751 | 103.98418 | 358 ft | 190 kts | 204° |
| 2026-05-06 07:21 | 1.31525 | 103.97865 | 1009 ft | 196 kts | 203° |
| 2026-05-06 07:21 | 1.30277 | 103.97302 | 1676 ft | 197 kts | 202° |
| 2026-05-06 07:21 | 1.28979 | 103.96739 | 1982 ft | 213 kts | 201° |
| 2026-05-06 07:21 | 1.27546 | 103.96151 | 2184 ft | 235 kts | 201° |
| 2026-05-06 07:22 | 1.25950 | 103.95508 | 2481 ft | 259 kts | 201° |
| 2026-05-06 07:22 | 1.24205 | 103.94964 | 3119 ft | 267 kts | 185° |
| 2026-05-06 07:22 | 1.22364 | 103.95226 | 3880 ft | 272 kts | 156° |
| 2026-05-06 07:22 | 1.20822 | 103.96288 | 4669 ft | 275 kts | 139° |
| 2026-05-06 07:23 | 1.19376 | 103.97552 | 5484 ft | 278 kts | 139° |
| 2026-05-06 07:23 | 1.17920 | 103.98836 | 6264 ft | 281 kts | 138° |
| 2026-05-06 07:23 | 1.16665 | 104.00340 | 6985 ft | 286 kts | 116° |
| 2026-05-06 07:23 | 1.16190 | 104.02261 | 7715 ft | 289 kts | 89° |
| 2026-05-06 07:24 | 1.16638 | 104.04217 | 8430 ft | 293 kts | 62° |
| 2026-05-06 07:24 | 1.17813 | 104.05886 | 9140 ft | 296 kts | 52° |
| 2026-05-06 07:24 | 1.19097 | 104.07503 | 9841 ft | 298 kts | 49° |
| 2026-05-06 07:24 | 1.20614 | 104.08951 | 10330 ft | 310 kts | 37° |
| 2026-05-06 07:25 | 1.22513 | 104.10118 | 10470 ft | 332 kts | 28° |
| 2026-05-06 07:25 | 1.23179 | 104.10482 | 10512 ft | 339 kts | 27° |
| 2026-05-06 07:25 | 1.23983 | 104.10873 | 10811 ft | 325 kts | 22° |
| 2026-05-06 07:25 | 1.26089 | 104.11526 | 11746 ft | 322 kts | 10° |
| 2026-05-06 07:26 | 1.28394 | 104.11587 | 11864 ft | 343 kts | 352° |
| 2026-05-06 07:26 | 1.30732 | 104.10917 | 12122 ft | 357 kts | 335° |
| 2026-05-06 07:26 | 1.32841 | 104.09579 | 12608 ft | 363 kts | 321° |
| 2026-05-06 07:26 | 1.34775 | 104.07942 | 13137 ft | 366 kts | 320° |
| 2026-05-06 07:27 | 1.36732 | 104.06286 | 13673 ft | 370 kts | 320° |
| 2026-05-06 07:27 | 1.38705 | 104.04620 | 14204 ft | 373 kts | 320° |
| 2026-05-06 07:27 | 1.40422 | 104.03241 | 14648 ft | 375 kts | 326° |
| 2026-05-06 07:27 | 1.42689 | 104.01948 | 15152 ft | 377 kts | 337° |
| 2026-05-06 07:28 | 1.45163 | 104.01054 | 15657 ft | 379 kts | 343° |
| 2026-05-06 07:28 | 1.47680 | 104.00239 | 16165 ft | 382 kts | 343° |
| 2026-05-06 07:28 | 1.52778 | 103.98588 | 17136 ft | 388 kts | 343° |
| 2026-05-06 07:29 | 1.55349 | 103.97753 | 17609 ft | 391 kts | 343° |
| 2026-05-06 07:29 | 1.57945 | 103.96912 | 18083 ft | 393 kts | 343° |
| 2026-05-06 07:29 | 1.60557 | 103.96070 | 18546 ft | 396 kts | 343° |
| 2026-05-06 07:29 | 1.62299 | 103.95510 | 18852 ft | 398 kts | 343° |
| 2026-05-06 07:30 | 1.65844 | 103.94369 | 19438 ft | 402 kts | 343° |
| 2026-05-06 07:30 | 1.68518 | 103.93503 | 19864 ft | 405 kts | 343° |
| 2026-05-06 07:30 | 1.70298 | 103.92926 | 20154 ft | 407 kts | 343° |
| 2026-05-06 07:30 | 1.73824 | 103.91491 | 20713 ft | 413 kts | 332° |
| 2026-05-06 07:31 | 1.76206 | 103.89856 | 21115 ft | 418 kts | 321° |
| 2026-05-06 07:31 | 1.78234 | 103.87807 | 21503 ft | 423 kts | 309° |
| 2026-05-06 07:31 | 1.80036 | 103.85474 | 21889 ft | 426 kts | 308° |
| 2026-05-06 07:31 | 1.81255 | 103.83884 | 22136 ft | 428 kts | 308° |
| 2026-05-06 07:32 | 1.83078 | 103.81516 | 22481 ft | 431 kts | 308° |
| 2026-05-06 07:32 | 1.85517 | 103.78362 | 22940 ft | 435 kts | 308° |
| 2026-05-06 07:32 | 1.87377 | 103.75965 | 23332 ft | 437 kts | 308° |
| 2026-05-06 07:32 | 1.89247 | 103.73555 | 23686 ft | 440 kts | 308° |
| 2026-05-06 07:33 | 1.91121 | 103.71134 | 24023 ft | 442 kts | 308° |
| 2026-05-06 07:33 | 1.92367 | 103.69519 | 24247 ft | 444 kts | 308° |
| 2026-05-06 07:33 | 1.94255 | 103.67065 | 24564 ft | 447 kts | 308° |
| 2026-05-06 07:33 | 1.96152 | 103.64595 | 24910 ft | 449 kts | 308° |
| 2026-05-06 07:34 | 1.98056 | 103.62112 | 25234 ft | 451 kts | 308° |
| 2026-05-06 07:34 | 2.00592 | 103.58803 | 25655 ft | 454 kts | 308° |
| 2026-05-06 07:34 | 2.02519 | 103.56295 | 25954 ft | 456 kts | 308° |
| 2026-05-06 07:34 | 2.04458 | 103.53776 | 26198 ft | 459 kts | 308° |
| 2026-05-06 07:35 | 2.05775 | 103.52068 | 26377 ft | 460 kts | 308° |
| 2026-05-06 07:35 | 2.07728 | 103.49533 | 26717 ft | 461 kts | 308° |
| 2026-05-06 07:35 | 2.09687 | 103.46989 | 27017 ft | 462 kts | 308° |
| 2026-05-06 07:35 | 2.11622 | 103.44470 | 27299 ft | 464 kts | 308° |
| 2026-05-06 07:36 | 2.13498 | 103.41841 | 27578 ft | 466 kts | 301° |
| 2026-05-06 07:36 | 2.14967 | 103.38947 | 27852 ft | 468 kts | 292° |
| 2026-05-06 07:36 | 2.15996 | 103.35847 | 28126 ft | 470 kts | 286° |
| 2026-05-06 07:36 | 2.16911 | 103.32702 | 28407 ft | 472 kts | 286° |
| 2026-05-06 07:37 | 2.17832 | 103.29548 | 28684 ft | 474 kts | 286° |
| 2026-05-06 07:37 | 2.18763 | 103.26379 | 29000 ft | 475 kts | 286° |
| 2026-05-06 07:37 | 2.19696 | 103.23218 | 29398 ft | 473 kts | 286° |
| 2026-05-06 07:37 | 2.20626 | 103.20065 | 29800 ft | 472 kts | 286° |
| 2026-05-06 07:38 | 2.21552 | 103.16920 | 30190 ft | 471 kts | 286° |
| 2026-05-06 07:38 | 2.22474 | 103.13772 | 30580 ft | 471 kts | 286° |
| 2026-05-06 07:38 | 2.23390 | 103.10638 | 30949 ft | 470 kts | 286° |
| 2026-05-06 07:38 | 2.24302 | 103.07511 | 31336 ft | 468 kts | 286° |
| 2026-05-06 07:39 | 2.25203 | 103.04429 | 31694 ft | 468 kts | 286° |
| 2026-05-06 07:39 | 2.26117 | 103.01306 | 31816 ft | 468 kts | 286° |
| 2026-05-06 07:39 | 2.27948 | 102.95044 | 31838 ft | 469 kts | 286° |
| 2026-05-06 07:40 | 2.29784 | 102.88780 | 31835 ft | 470 kts | 286° |
| 2026-05-06 07:40 | 2.31619 | 102.82495 | 31815 ft | 473 kts | 287° |
| 2026-05-06 07:41 | 2.33468 | 102.76173 | 31813 ft | 474 kts | 287° |
| 2026-05-06 07:41 | 2.35323 | 102.69844 | 31812 ft | 474 kts | 287° |
| 2026-05-06 07:42 | 2.37166 | 102.63551 | 31814 ft | 476 kts | 287° |
| 2026-05-06 07:42 | 2.39026 | 102.57181 | 31815 ft | 478 kts | 287° |
| 2026-05-06 07:43 | 2.40885 | 102.50801 | 31829 ft | 477 kts | 287° |
| 2026-05-06 07:43 | 2.42742 | 102.44441 | 31828 ft | 476 kts | 287° |
| 2026-05-06 07:44 | 2.44593 | 102.38087 | 31824 ft | 475 kts | 287° |
| 2026-05-06 07:44 | 2.46998 | 102.31967 | 31820 ft | 473 kts | 301° |
| 2026-05-06 07:45 | 2.50769 | 102.26649 | 31817 ft | 472 kts | 307° |
| 2026-05-06 07:45 | 2.54673 | 102.21368 | 31811 ft | 472 kts | 307° |
| 2026-05-06 07:46 | 2.58571 | 102.16063 | 31800 ft | 474 kts | 307° |
| 2026-05-06 07:46 | 2.62474 | 102.10750 | 31800 ft | 474 kts | 307° |
| 2026-05-06 07:47 | 2.66380 | 102.05438 | 31812 ft | 474 kts | 307° |
| 2026-05-06 07:47 | 2.70287 | 102.00131 | 31814 ft | 474 kts | 307° |
| 2026-05-06 07:48 | 2.74165 | 101.94871 | 31817 ft | 473 kts | 307° |
| 2026-05-06 07:48 | 2.78065 | 101.89562 | 31814 ft | 473 kts | 307° |
| 2026-05-06 07:49 | 2.81967 | 101.84266 | 31812 ft | 473 kts | 307° |
| 2026-05-06 07:49 | 2.85866 | 101.78971 | 31814 ft | 473 kts | 307° |
| 2026-05-06 07:50 | 2.89760 | 101.73676 | 31816 ft | 472 kts | 307° |
| 2026-05-06 07:50 | 2.93629 | 101.68422 | 31834 ft | 471 kts | 307° |
| 2026-05-06 07:51 | 2.97504 | 101.63146 | 31832 ft | 470 kts | 307° |
| 2026-05-06 07:51 | 3.01364 | 101.57885 | 31834 ft | 468 kts | 307° |
| 2026-05-06 07:52 | 3.05216 | 101.52638 | 31831 ft | 467 kts | 307° |
| 2026-05-06 07:52 | 3.09067 | 101.47405 | 31829 ft | 467 kts | 307° |
| 2026-05-06 07:53 | 3.12889 | 101.42218 | 31826 ft | 466 kts | 307° |
| 2026-05-06 07:53 | 3.16735 | 101.36986 | 31823 ft | 466 kts | 307° |
| 2026-05-06 07:54 | 3.20571 | 101.31759 | 31821 ft | 466 kts | 307° |
| 2026-05-06 07:54 | 3.24410 | 101.26540 | 31821 ft | 466 kts | 307° |
| 2026-05-06 07:55 | 3.28251 | 101.21318 | 31820 ft | 466 kts | 307° |
| 2026-05-06 07:55 | 3.32105 | 101.16111 | 31818 ft | 465 kts | 310° |
| 2026-05-06 07:56 | 3.36885 | 101.11883 | 31815 ft | 462 kts | 329° |
| 2026-05-06 07:56 | 3.42665 | 101.09109 | 31810 ft | 461 kts | 337° |
| 2026-05-06 07:57 | 3.48528 | 101.06489 | 31809 ft | 461 kts | 336° |
| 2026-05-06 07:57 | 3.54387 | 101.03857 | 31725 ft | 461 kts | 336° |
| 2026-05-06 07:58 | 3.57301 | 101.02543 | 31432 ft | 457 kts | 336° |
| 2026-05-06 07:58 | 3.60184 | 101.01246 | 30955 ft | 452 kts | 337° |
| 2026-05-06 07:58 | 3.63043 | 100.99964 | 30456 ft | 449 kts | 337° |
| 2026-05-06 07:58 | 3.65882 | 100.98690 | 29953 ft | 445 kts | 337° |
| 2026-05-06 07:59 | 3.68698 | 100.97427 | 29446 ft | 442 kts | 337° |
| 2026-05-06 07:59 | 3.71494 | 100.96179 | 28945 ft | 439 kts | 338° |
| 2026-05-06 07:59 | 3.74240 | 100.94959 | 28453 ft | 436 kts | 337° |
| 2026-05-06 07:59 | 3.77002 | 100.93732 | 27961 ft | 433 kts | 337° |
| 2026-05-06 08:00 | 3.79745 | 100.92513 | 27461 ft | 430 kts | 337° |
| 2026-05-06 08:00 | 3.82468 | 100.91305 | 26977 ft | 427 kts | 337° |
| 2026-05-06 08:00 | 3.85176 | 100.90103 | 26498 ft | 424 kts | 338° |
| 2026-05-06 08:00 | 3.87867 | 100.88908 | 26034 ft | 421 kts | 338° |
| 2026-05-06 08:01 | 3.90535 | 100.87722 | 25574 ft | 418 kts | 338° |
| 2026-05-06 08:01 | 3.93185 | 100.86542 | 25133 ft | 415 kts | 338° |
| 2026-05-06 08:01 | 3.95817 | 100.85369 | 24676 ft | 413 kts | 338° |
| 2026-05-06 08:01 | 3.98430 | 100.84203 | 24241 ft | 410 kts | 338° |
| 2026-05-06 08:02 | 4.01032 | 100.83045 | 23786 ft | 408 kts | 338° |
| 2026-05-06 08:02 | 4.03615 | 100.81895 | 23338 ft | 405 kts | 338° |
| 2026-05-06 08:02 | 4.06179 | 100.80752 | 22887 ft | 402 kts | 338° |
| 2026-05-06 08:02 | 4.08726 | 100.79619 | 22456 ft | 399 kts | 338° |
| 2026-05-06 08:03 | 4.11221 | 100.78510 | 22022 ft | 397 kts | 338° |
| 2026-05-06 08:03 | 4.13734 | 100.77393 | 21595 ft | 394 kts | 338° |
| 2026-05-06 08:03 | 4.16229 | 100.76280 | 21141 ft | 391 kts | 338° |
| 2026-05-06 08:03 | 4.18704 | 100.75178 | 20803 ft | 388 kts | 338° |
| 2026-05-06 08:04 | 4.21179 | 100.74090 | 20560 ft | 388 kts | 338° |
| 2026-05-06 08:04 | 4.23657 | 100.73015 | 20311 ft | 387 kts | 338° |
| 2026-05-06 08:04 | 4.26127 | 100.71948 | 20060 ft | 386 kts | 338° |
| 2026-05-06 08:04 | 4.28583 | 100.70885 | 19776 ft | 381 kts | 338° |
| 2026-05-06 08:05 | 4.31009 | 100.69830 | 19316 ft | 379 kts | 338° |
| 2026-05-06 08:05 | 4.33419 | 100.68776 | 18839 ft | 377 kts | 338° |
| 2026-05-06 08:05 | 4.35818 | 100.67730 | 18352 ft | 376 kts | 338° |
| 2026-05-06 08:05 | 4.38215 | 100.66686 | 17871 ft | 374 kts | 338° |
| 2026-05-06 08:06 | 4.40598 | 100.65647 | 17386 ft | 373 kts | 338° |
| 2026-05-06 08:06 | 4.42940 | 100.64626 | 16908 ft | 372 kts | 338° |
| 2026-05-06 08:06 | 4.45304 | 100.63595 | 16428 ft | 370 kts | 338° |
| 2026-05-06 08:06 | 4.47660 | 100.62564 | 15946 ft | 368 kts | 338° |
| 2026-05-06 08:07 | 4.50001 | 100.61540 | 15464 ft | 366 kts | 338° |
| 2026-05-06 08:07 | 4.52332 | 100.60525 | 14987 ft | 364 kts | 338° |
| 2026-05-06 08:07 | 4.54646 | 100.59519 | 14500 ft | 362 kts | 338° |
| 2026-05-06 08:07 | 4.56947 | 100.58518 | 14033 ft | 360 kts | 338° |
| 2026-05-06 08:08 | 4.59235 | 100.57523 | 13560 ft | 358 kts | 338° |
| 2026-05-06 08:08 | 4.61512 | 100.56531 | 13087 ft | 356 kts | 338° |
| 2026-05-06 08:08 | 4.63775 | 100.55544 | 12626 ft | 354 kts | 338° |
| 2026-05-06 08:08 | 4.66027 | 100.54562 | 12170 ft | 352 kts | 338° |
| 2026-05-06 08:09 | 4.68266 | 100.53587 | 11694 ft | 350 kts | 338° |
| 2026-05-06 08:09 | 4.70493 | 100.52615 | 11236 ft | 348 kts | 338° |
| 2026-05-06 08:09 | 4.72706 | 100.51647 | 10779 ft | 346 kts | 338° |
| 2026-05-06 08:09 | 4.74865 | 100.50703 | 10506 ft | 339 kts | 338° |
| 2026-05-06 08:10 | 4.77015 | 100.49764 | 10216 ft | 333 kts | 338° |
| 2026-05-06 08:10 | 4.79107 | 100.48850 | 10093 ft | 323 kts | 338° |
| 2026-05-06 08:10 | 4.81117 | 100.47935 | 9962 ft | 313 kts | 332° |
| 2026-05-06 08:10 | 4.82850 | 100.46667 | 9780 ft | 306 kts | 316° |
| 2026-05-06 08:11 | 4.84216 | 100.45040 | 9464 ft | 305 kts | 308° |
| 2026-05-06 08:11 | 4.85494 | 100.43351 | 9125 ft | 303 kts | 308° |
| 2026-05-06 08:11 | 4.86765 | 100.41674 | 8793 ft | 301 kts | 308° |
| 2026-05-06 08:11 | 4.88029 | 100.40008 | 8465 ft | 299 kts | 308° |
| 2026-05-06 08:12 | 4.89291 | 100.38353 | 8141 ft | 298 kts | 308° |
| 2026-05-06 08:12 | 4.90544 | 100.36707 | 7818 ft | 296 kts | 308° |
| 2026-05-06 08:12 | 4.91788 | 100.35074 | 7482 ft | 294 kts | 308° |
| 2026-05-06 08:12 | 4.93010 | 100.33472 | 7170 ft | 293 kts | 308° |
| 2026-05-06 08:13 | 4.94242 | 100.31856 | 6848 ft | 291 kts | 308° |
| 2026-05-06 08:13 | 4.95465 | 100.30249 | 6523 ft | 289 kts | 308° |
| 2026-05-06 08:13 | 4.96680 | 100.28652 | 6223 ft | 287 kts | 307° |
| 2026-05-06 08:13 | 4.97887 | 100.27069 | 5903 ft | 285 kts | 307° |
| 2026-05-06 08:14 | 4.99090 | 100.25494 | 5574 ft | 283 kts | 307° |
| 2026-05-06 08:14 | 5.00286 | 100.23929 | 5248 ft | 282 kts | 308° |
| 2026-05-06 08:14 | 5.01473 | 100.22374 | 4814 ft | 279 kts | 307° |
| 2026-05-06 08:14 | 5.02645 | 100.20833 | 4239 ft | 277 kts | 307° |
| 2026-05-06 08:15 | 5.03894 | 100.19407 | 3897 ft | 276 kts | 319° |
| 2026-05-06 08:15 | 5.05473 | 100.18354 | 3701 ft | 269 kts | 333° |
| 2026-05-06 08:15 | 5.07105 | 100.17508 | 3599 ft | 259 kts | 332° |
| 2026-05-06 08:15 | 5.08677 | 100.16685 | 3484 ft | 250 kts | 332° |
| 2026-05-06 08:16 | 5.10185 | 100.15888 | 3375 ft | 240 kts | 332° |
| 2026-05-06 08:16 | 5.11638 | 100.15126 | 3267 ft | 232 kts | 335° |
| 2026-05-06 08:16 | 5.13177 | 100.14692 | 3166 ft | 230 kts | 355° |
| 2026-05-06 08:16 | 5.14763 | 100.14820 | 3063 ft | 230 kts | 16° |
| 2026-05-06 08:17 | 5.16202 | 100.15494 | 3002 ft | 229 kts | 36° |
| 2026-05-06 08:17 | 5.17408 | 100.16532 | 2890 ft | 224 kts | 42° |
| 2026-05-06 08:17 | 5.18518 | 100.17543 | 2669 ft | 214 kts | 42° |
| 2026-05-06 08:17 | 5.19603 | 100.18527 | 2393 ft | 207 kts | 42° |
| 2026-05-06 08:18 | 5.20656 | 100.19481 | 2104 ft | 201 kts | 42° |
| 2026-05-06 08:18 | 5.21682 | 100.20409 | 1844 ft | 196 kts | 42° |
| 2026-05-06 08:18 | 5.22675 | 100.21308 | 1593 ft | 188 kts | 42° |
| 2026-05-06 08:18 | 5.23625 | 100.22168 | 1344 ft | 181 kts | 42° |
| 2026-05-06 08:19 | 5.24525 | 100.22983 | 1120 ft | 167 kts | 42° |
| 2026-05-06 08:19 | 5.25377 | 100.23755 | 897 ft | 163 kts | 42° |
| 2026-05-06 08:19 | 5.26212 | 100.24507 | 665 ft | 161 kts | 41° |
| 2026-05-06 08:19 | 5.27035 | 100.25246 | 463 ft | 158 kts | 43° |
| 2026-05-06 08:20 | 5.27849 | 100.25989 | 291 ft | 158 kts | 42° |
| 2026-05-06 08:20 | 5.28645 | 100.26714 | 48 ft | 153 kts | 43° |
| 2026-05-06 08:20 | 5.29331 | 100.27358 | 24 ft | 112 kts | 43° |
| 2026-05-06 08:20 | 5.29789 | 100.27757 | 25 ft | 62 kts | 41° |
| 2026-05-06 08:21 | 5.30048 | 100.27992 | 28 ft | 47 kts | 42° |
| 2026-05-06 08:21 | 5.30289 | 100.28210 | 23 ft | 47 kts | 42° |
| 2026-05-06 08:21 | 5.30530 | 100.28429 | 23 ft | 47 kts | 41° |
| 2026-05-06 08:21 | 5.30714 | 100.28593 | 24 ft | 24 kts | 43° |
| 2026-05-06 08:22 | 5.30852 | 100.28655 | 25 ft | 15 kts | 331° |
| 2026-05-06 08:22 | 5.30899 | 100.28557 | 23 ft | 18 kts | 264° |
| 2026-05-06 08:22 | 5.30821 | 100.28463 | 23 ft | 19 kts | 222° |
| 2026-05-06 08:22 | 5.30719 | 100.28371 | 23 ft | 17 kts | 222° |
| 2026-05-06 08:23 | 5.30624 | 100.28283 | 22 ft | 20 kts | 223° |
| 2026-05-06 08:23 | 5.30520 | 100.28185 | 22 ft | 22 kts | 222° |
| 2026-05-06 08:23 | 5.30404 | 100.28079 | 23 ft | 24 kts | 223° |
| 2026-05-06 08:23 | 5.30282 | 100.27960 | 23 ft | 25 kts | 224° |
| 2026-05-06 08:24 | 5.30153 | 100.27833 | 23 ft | 27 kts | 225° |
| 2026-05-06 08:24 | 5.30016 | 100.27698 | 23 ft | 28 kts | 224° |
| 2026-05-06 08:24 | 5.29869 | 100.27559 | 23 ft | 29 kts | 223° |
| 2026-05-06 08:24 | 5.29744 | 100.27447 | 23 ft | 25 kts | 221° |
| 2026-05-06 08:25 | 5.29612 | 100.27329 | 23 ft | 26 kts | 222° |
| 2026-05-06 08:25 | 5.29472 | 100.27203 | 23 ft | 27 kts | 222° |
| 2026-05-06 08:25 | 5.29379 | 100.27120 | 23 ft | 12 kts | 220° |
| 2026-05-06 08:25 | 5.29313 | 100.27061 | 23 ft | 14 kts | 222° |
| 2026-05-06 08:26 | 5.29237 | 100.26991 | 23 ft | 16 kts | 222° |
| 2026-05-06 08:26 | 5.29199 | 100.26907 | 23 ft | 15 kts | 297° |
| 2026-05-06 08:26 | 5.29243 | 100.26845 | 24 ft | 9 kts | 311° |
| 2026-05-06 08:26 | 5.29256 | 100.26794 | 23 ft | 5 kts | 249° |
| 2026-05-06 08:27 | 5.29232 | 100.26762 | 23 ft | 7 kts | 229° |
| 2026-05-06 08:27 | 5.29204 | 100.26733 | 23 ft | 2 kts | 249° |
| 2026-05-06 08:27 | 5.29212 | 100.26717 | 23 ft | 3 kts | 304° |
| 2026-05-06 08:27 | 5.29231 | 100.26693 | 23 ft | 5 kts | 310° |
| 2026-05-06 08:28 | 5.29246 | 100.26676 | 23 ft | 2 kts | 311° |
| 2026-05-06 08:28 | 5.29250 | 100.26671 | 23 ft | 0 kts | 311° |